Terminal Aerodrome Forecast
Issued by NWS Sioux Falls, SD

Home | Current Version | Previous Version | Text Only | Print | Product List | Glossary On
Versions: 1 2 3 4 5 6 7 8 9 10 11 12 13 14 15 16
000
FTUS43 KFSD 270826 AAA
TAFFSD
TAF AMD
KFSD 270826Z 2708/2806 VRB04KT P6SM OVC035
      TEMPO 2708/2712 BKN025
     FM271900 02005KT P6SM SCT020 BKN070
     FM272100 02005KT P6SM SCT070
     FM280500 08004KT P6SM FEW200=

USA.gov is the U.S. government's official web portal to all federal, state and local government web resources and services.